sensor_id;sensor_type;location;lat;lon;timestamp;temperature;humidity
41469;DHT22;27206;47.032;15.484;2022-08-24T00:00:09;15.20;76.40
41469;DHT22;27206;47.032;15.484;2022-08-24T00:02:38;15.20;88.20
41469;DHT22;27206;47.032;15.484;2022-08-24T00:05:04;15.20;68.90
41469;DHT22;27206;47.032;15.484;2022-08-24T00:07:31;15.10;93.70
41469;DHT22;27206;47.032;15.484;2022-08-24T00:09:57;15.20;93.30
41469;DHT22;27206;47.032;15.484;2022-08-24T00:12:23;15.10;83.90
41469;DHT22;27206;47.032;15.484;2022-08-24T00:14:49;14.90;94.90
41469;DHT22;27206;47.032;15.484;2022-08-24T00:17:16;14.90;99.90
41469;DHT22;27206;47.032;15.484;2022-08-24T00:19:42;14.90;99.90
41469;DHT22;27206;47.032;15.484;2022-08-24T00:22:08;14.90;99.90
41469;DHT22;27206;47.032;15.484;2022-08-24T00:24:34;14.80;99.90
41469;DHT22;27206;47.032;15.484;2022-08-24T00:27:00;14.80;99.90
41469;DHT22;27206;47.032;15.484;2022-08-24T00:29:26;14.80;99.90
41469;DHT22;27206;47.032;15.484;2022-08-24T00:31:52;14.90;99.90
41469;DHT22;27206;47.032;15.484;2022-08-24T00:34:18;14.90;99.90
41469;DHT22;27206;47.032;15.484;2022-08-24T00:36:44;14.80;96.90
41469;DHT22;27206;47.032;15.484;2022-08-24T00:39:10;14.70;99.90
41469;DHT22;27206;47.032;15.484;2022-08-24T00:41:43;14.60;99.90
41469;DHT22;27206;47.032;15.484;2022-08-24T00:44:10;14.70;99.90
41469;DHT22;27206;47.032;15.484;2022-08-24T00:52:14;14.50;99.90
41469;DHT22;27206;47.032;15.484;2022-08-24T00:54:46;14.50;99.90
41469;DHT22;27206;47.032;15.484;2022-08-24T00:57:16;14.60;99.90
41469;DHT22;27206;47.032;15.484;2022-08-24T00:59:49;14.60;99.90
41469;DHT22;27206;47.032;15.484;2022-08-24T01:02:31;14.60;99.90
41469;DHT22;27206;47.032;15.484;2022-08-24T01:05:00;14.60;98.30
41469;DHT22;27206;47.032;15.484;2022-08-24T01:07:28;14.60;99.90
41469;DHT22;27206;47.032;15.484;2022-08-24T01:09:59;14.60;99.90
41469;DHT22;27206;47.032;15.484;2022-08-24T01:12:27;14.60;99.90
41469;DHT22;27206;47.032;15.484;2022-08-24T01:14:55;14.50;99.90
41469;DHT22;27206;47.032;15.484;2022-08-24T01:17:22;14.40;99.90
41469;DHT22;27206;47.032;15.484;2022-08-24T01:20:08;14.30;99.90
41469;DHT22;27206;47.032;15.484;2022-08-24T01:23:06;14.40;99.90
41469;DHT22;27206;47.032;15.484;2022-08-24T01:25:35;14.40;99.90
41469;DHT22;27206;47.032;15.484;2022-08-24T01:28:09;14.30;99.90
41469;DHT22;27206;47.032;15.484;2022-08-24T01:30:36;14.20;99.90
41469;DHT22;27206;47.032;15.484;2022-08-24T01:33:04;14.20;99.90
41469;DHT22;27206;47.032;15.484;2022-08-24T01:35:31;14.20;99.90
41469;DHT22;27206;47.032;15.484;2022-08-24T01:38:00;14.20;99.90
41469;DHT22;27206;47.032;15.484;2022-08-24T01:40:32;14.10;99.90
41469;DHT22;27206;47.032;15.484;2022-08-24T01:42:59;14.10;99.90
41469;DHT22;27206;47.032;15.484;2022-08-24T01:45:25;14.20;99.90
41469;DHT22;27206;47.032;15.484;2022-08-24T01:47:51;14.20;99.90
41469;DHT22;27206;47.032;15.484;2022-08-24T01:50:16;14.20;99.90
41469;DHT22;27206;47.032;15.484;2022-08-24T01:52:42;14.10;99.90
41469;DHT22;27206;47.032;15.484;2022-08-24T01:55:12;14.20;99.90
41469;DHT22;27206;47.032;15.484;2022-08-24T01:57:38;14.10;99.90
41469;DHT22;27206;47.032;15.484;2022-08-24T02:00:06;14.10;99.90
41469;DHT22;27206;47.032;15.484;2022-08-24T02:02:32;14.10;99.90
41469;DHT22;27206;47.032;15.484;2022-08-24T02:04:58;14.00;99.90
41469;DHT22;27206;47.032;15.484;2022-08-24T02:07:25;14.10;99.90
41469;DHT22;27206;47.032;15.484;2022-08-24T02:09:51;14.00;99.90
41469;DHT22;27206;47.032;15.484;2022-08-24T02:12:18;14.00;99.90
41469;DHT22;27206;47.032;15.484;2022-08-24T02:14:44;14.00;99.90
41469;DHT22;27206;47.032;15.484;2022-08-24T02:17:10;14.00;99.90
41469;DHT22;27206;47.032;15.484;2022-08-24T02:19:36;14.00;99.90
41469;DHT22;27206;47.032;15.484;2022-08-24T02:22:02;13.90;99.90
41469;DHT22;27206;47.032;15.484;2022-08-24T02:24:30;14.00;99.90
41469;DHT22;27206;47.032;15.484;2022-08-24T02:26:56;13.90;99.90
41469;DHT22;27206;47.032;15.484;2022-08-24T02:29:22;14.00;99.90
41469;DHT22;27206;47.032;15.484;2022-08-24T02:31:48;13.90;99.90
41469;DHT22;27206;47.032;15.484;2022-08-24T02:34:14;13.90;99.90
41469;DHT22;27206;47.032;15.484;2022-08-24T02:36:40;13.90;99.90
41469;DHT22;27206;47.032;15.484;2022-08-24T02:39:07;14.00;99.90
41469;DHT22;27206;47.032;15.484;2022-08-24T02:41:33;13.90;99.90
41469;DHT22;27206;47.032;15.484;2022-08-24T02:44:00;13.90;99.90
41469;DHT22;27206;47.032;15.484;2022-08-24T02:46:27;13.80;99.90
41469;DHT22;27206;47.032;15.484;2022-08-24T02:48:53;13.80;99.90
41469;DHT22;27206;47.032;15.484;2022-08-24T02:51:25;13.80;99.90
41469;DHT22;27206;47.032;15.484;2022-08-24T02:53:51;13.80;99.90
41469;DHT22;27206;47.032;15.484;2022-08-24T02:56:17;13.80;99.90
41469;DHT22;27206;47.032;15.484;2022-08-24T02:58:44;13.80;99.90
41469;DHT22;27206;47.032;15.484;2022-08-24T03:01:11;13.90;99.90
41469;DHT22;27206;47.032;15.484;2022-08-24T03:03:37;13.80;99.90
41469;DHT22;27206;47.032;15.484;2022-08-24T03:06:04;13.80;99.90
41469;DHT22;27206;47.032;15.484;2022-08-24T03:08:30;13.80;99.90
41469;DHT22;27206;47.032;15.484;2022-08-24T03:10:56;13.80;99.90
41469;DHT22;27206;47.032;15.484;2022-08-24T03:13:21;13.80;99.90
41469;DHT22;27206;47.032;15.484;2022-08-24T03:15:47;13.90;99.90
41469;DHT22;27206;47.032;15.484;2022-08-24T03:18:12;13.90;99.90
41469;DHT22;27206;47.032;15.484;2022-08-24T03:20:38;14.00;99.90
41469;DHT22;27206;47.032;15.484;2022-08-24T03:23:04;13.90;99.90
41469;DHT22;27206;47.032;15.484;2022-08-24T03:25:30;13.90;99.90
41469;DHT22;27206;47.032;15.484;2022-08-24T03:27:56;14.00;99.90
41469;DHT22;27206;47.032;15.484;2022-08-24T03:30:23;14.00;99.90
41469;DHT22;27206;47.032;15.484;2022-08-24T03:32:49;13.90;99.90
41469;DHT22;27206;47.032;15.484;2022-08-24T03:35:16;13.90;99.90
41469;DHT22;27206;47.032;15.484;2022-08-24T03:37:42;13.90;99.90
41469;DHT22;27206;47.032;15.484;2022-08-24T03:40:09;13.80;99.90
41469;DHT22;27206;47.032;15.484;2022-08-24T03:42:35;13.90;99.90
41469;DHT22;27206;47.032;15.484;2022-08-24T03:45:01;13.90;99.90
41469;DHT22;27206;47.032;15.484;2022-08-24T03:47:26;13.80;99.90
41469;DHT22;27206;47.032;15.484;2022-08-24T03:49:52;13.80;99.90
41469;DHT22;27206;47.032;15.484;2022-08-24T03:52:18;13.80;99.90
41469;DHT22;27206;47.032;15.484;2022-08-24T03:54:44;13.70;99.90
41469;DHT22;27206;47.032;15.484;2022-08-24T03:57:09;13.70;99.90
41469;DHT22;27206;47.032;15.484;2022-08-24T03:59:35;13.60;99.90
41469;DHT22;27206;47.032;15.484;2022-08-24T04:02:00;13.70;99.90
41469;DHT22;27206;47.032;15.484;2022-08-24T04:04:26;13.60;99.90
41469;DHT22;27206;47.032;15.484;2022-08-24T04:06:52;13.70;99.90
41469;DHT22;27206;47.032;15.484;2022-08-24T04:09:18;13.70;99.90
41469;DHT22;27206;47.032;15.484;2022-08-24T04:11:44;13.70;99.90
41469;DHT22;27206;47.032;15.484;2022-08-24T04:14:11;13.60;99.90
41469;DHT22;27206;47.032;15.484;2022-08-24T04:16:37;13.60;99.90
41469;DHT22;27206;47.032;15.484;2022-08-24T04:19:03;13.60;99.90
41469;DHT22;27206;47.032;15.484;2022-08-24T04:21:34;13.50;99.90
41469;DHT22;27206;47.032;15.484;2022-08-24T04:24:02;13.60;99.90
41469;DHT22;27206;47.032;15.484;2022-08-24T04:26:29;13.60;99.90
41469;DHT22;27206;47.032;15.484;2022-08-24T04:28:56;13.60;99.90
41469;DHT22;27206;47.032;15.484;2022-08-24T04:31:22;13.60;99.90
41469;DHT22;27206;47.032;15.484;2022-08-24T04:33:48;13.60;99.90
41469;DHT22;27206;47.032;15.484;2022-08-24T04:36:15;13.50;99.90
41469;DHT22;27206;47.032;15.484;2022-08-24T04:38:41;13.60;99.90
41469;DHT22;27206;47.032;15.484;2022-08-24T04:41:08;13.60;99.90
41469;DHT22;27206;47.032;15.484;2022-08-24T04:43:37;13.60;99.90
41469;DHT22;27206;47.032;15.484;2022-08-24T04:46:05;13.60;99.90
41469;DHT22;27206;47.032;15.484;2022-08-24T04:48:31;13.70;99.90
41469;DHT22;27206;47.032;15.484;2022-08-24T04:51:05;13.60;99.90
41469;DHT22;27206;47.032;15.484;2022-08-24T04:53:32;13.60;99.90
41469;DHT22;27206;47.032;15.484;2022-08-24T04:55:58;13.60;99.90
41469;DHT22;27206;47.032;15.484;2022-08-24T04:58:26;13.70;99.90
41469;DHT22;27206;47.032;15.484;2022-08-24T05:00:52;13.70;99.90
41469;DHT22;27206;47.032;15.484;2022-08-24T05:03:17;13.80;99.90
41469;DHT22;27206;47.032;15.484;2022-08-24T05:05:45;13.80;99.90
41469;DHT22;27206;47.032;15.484;2022-08-24T05:08:12;13.90;99.90
41469;DHT22;27206;47.032;15.484;2022-08-24T05:10:41;13.90;99.90
41469;DHT22;27206;47.032;15.484;2022-08-24T05:13:07;13.90;99.90
41469;DHT22;27206;47.032;15.484;2022-08-24T05:15:34;13.90;99.90
41469;DHT22;27206;47.032;15.484;2022-08-24T05:18:01;14.00;99.90
41469;DHT22;27206;47.032;15.484;2022-08-24T05:20:26;13.90;99.90
41469;DHT22;27206;47.032;15.484;2022-08-24T05:22:53;14.00;99.90
41469;DHT22;27206;47.032;15.484;2022-08-24T05:25:20;14.10;99.90
41469;DHT22;27206;47.032;15.484;2022-08-24T05:27:46;14.10;99.90
41469;DHT22;27206;47.032;15.484;2022-08-24T05:30:12;14.20;99.90
41469;DHT22;27206;47.032;15.484;2022-08-24T05:32:38;14.30;99.90
41469;DHT22;27206;47.032;15.484;2022-08-24T05:35:05;15.30;37.50
41469;DHT22;27206;47.032;15.484;2022-08-24T05:37:37;15.40;14.70
41469;DHT22;27206;47.032;15.484;2022-08-24T05:40:09;15.20;13.20
41469;DHT22;27206;47.032;15.484;2022-08-24T05:42:37;14.90;88.90
41469;DHT22;27206;47.032;15.484;2022-08-24T05:45:04;14.80;99.90
41469;DHT22;27206;47.032;15.484;2022-08-24T05:47:31;14.70;99.90
41469;DHT22;27206;47.032;15.484;2022-08-24T05:49:56;14.80;99.90
41469;DHT22;27206;47.032;15.484;2022-08-24T05:52:22;14.70;99.90
41469;DHT22;27206;47.032;15.484;2022-08-24T05:54:53;14.80;99.90
41469;DHT22;27206;47.032;15.484;2022-08-24T05:57:20;14.90;99.90
41469;DHT22;27206;47.032;15.484;2022-08-24T05:59:46;15.00;99.90
41469;DHT22;27206;47.032;15.484;2022-08-24T06:02:12;15.00;99.90
41469;DHT22;27206;47.032;15.484;2022-08-24T06:04:38;15.20;99.90
41469;DHT22;27206;47.032;15.484;2022-08-24T06:07:04;15.20;99.90
41469;DHT22;27206;47.032;15.484;2022-08-24T06:09:31;15.20;99.90
41469;DHT22;27206;47.032;15.484;2022-08-24T06:11:57;15.30;99.90
41469;DHT22;27206;47.032;15.484;2022-08-24T06:14:24;15.40;99.90
41469;DHT22;27206;47.032;15.484;2022-08-24T06:16:49;15.50;99.90
41469;DHT22;27206;47.032;15.484;2022-08-24T06:19:17;15.50;99.90
41469;DHT22;27206;47.032;15.484;2022-08-24T06:21:45;15.60;75.60
41469;DHT22;27206;47.032;15.484;2022-08-24T06:24:13;15.60;52.70
41469;DHT22;27206;47.032;15.484;2022-08-24T06:26:43;15.80;53.80
41469;DHT22;27206;47.032;15.484;2022-08-24T06:29:28;15.90;53.50
41469;DHT22;27206;47.032;15.484;2022-08-24T06:31:54;16.00;47.80
41469;DHT22;27206;47.032;15.484;2022-08-24T06:34:23;16.00;47.40
41469;DHT22;27206;47.032;15.484;2022-08-24T06:36:50;16.10;34.60
41469;DHT22;27206;47.032;15.484;2022-08-24T06:39:17;16.20;58.30
41469;DHT22;27206;47.032;15.484;2022-08-24T06:41:43;16.20;31.20
41469;DHT22;27206;47.032;15.484;2022-08-24T06:44:08;16.30;10.40
41469;DHT22;27206;47.032;15.484;2022-08-24T06:46:34;16.30;1.00
41469;DHT22;27206;47.032;15.484;2022-08-24T06:49:03;16.40;1.00
41469;DHT22;27206;47.032;15.484;2022-08-24T06:51:30;16.50;1.00
41469;DHT22;27206;47.032;15.484;2022-08-24T06:53:56;16.60;1.00
41469;DHT22;27206;47.032;15.484;2022-08-24T06:56:23;16.70;1.00
41469;DHT22;27206;47.032;15.484;2022-08-24T06:58:48;16.80;1.00
41469;DHT22;27206;47.032;15.484;2022-08-24T07:01:22;16.90;1.00
41469;DHT22;27206;47.032;15.484;2022-08-24T07:03:48;17.00;1.00
41469;DHT22;27206;47.032;15.484;2022-08-24T07:06:13;17.10;1.00
41469;DHT22;27206;47.032;15.484;2022-08-24T07:08:40;17.20;1.00
41469;DHT22;27206;47.032;15.484;2022-08-24T07:11:07;17.30;1.00
41469;DHT22;27206;47.032;15.484;2022-08-24T07:13:32;17.50;1.00
41469;DHT22;27206;47.032;15.484;2022-08-24T07:15:58;17.50;1.00
41469;DHT22;27206;47.032;15.484;2022-08-24T07:18:25;17.60;1.00
41469;DHT22;27206;47.032;15.484;2022-08-24T07:20:51;17.80;1.00
41469;DHT22;27206;47.032;15.484;2022-08-24T07:23:18;17.80;1.00
41469;DHT22;27206;47.032;15.484;2022-08-24T07:25:45;18.00;1.00
41469;DHT22;27206;47.032;15.484;2022-08-24T07:28:12;18.10;1.00
41469;DHT22;27206;47.032;15.484;2022-08-24T07:30:39;18.20;1.00
41469;DHT22;27206;47.032;15.484;2022-08-24T07:33:05;18.40;1.00
41469;DHT22;27206;47.032;15.484;2022-08-24T07:35:32;18.50;1.00
41469;DHT22;27206;47.032;15.484;2022-08-24T07:37:58;18.60;1.00
41469;DHT22;27206;47.032;15.484;2022-08-24T07:40:26;18.80;1.00
41469;DHT22;27206;47.032;15.484;2022-08-24T07:42:53;19.00;1.00
41469;DHT22;27206;47.032;15.484;2022-08-24T07:45:19;19.10;1.00
41469;DHT22;27206;47.032;15.484;2022-08-24T07:47:45;19.20;1.00
41469;DHT22;27206;47.032;15.484;2022-08-24T07:50:12;19.30;1.00
41469;DHT22;27206;47.032;15.484;2022-08-24T07:52:38;19.40;1.00
41469;DHT22;27206;47.032;15.484;2022-08-24T07:55:04;19.60;1.00
41469;DHT22;27206;47.032;15.484;2022-08-24T07:57:30;19.80;1.00
41469;DHT22;27206;47.032;15.484;2022-08-24T07:59:58;20.00;1.00
41469;DHT22;27206;47.032;15.484;2022-08-24T08:02:24;20.20;1.00
41469;DHT22;27206;47.032;15.484;2022-08-24T08:04:50;20.30;1.00
41469;DHT22;27206;47.032;15.484;2022-08-24T08:07:18;20.50;1.00
41469;DHT22;27206;47.032;15.484;2022-08-24T08:09:44;20.70;1.00
41469;DHT22;27206;47.032;15.484;2022-08-24T08:12:10;20.90;1.00
41469;DHT22;27206;47.032;15.484;2022-08-24T08:14:36;21.00;1.00
41469;DHT22;27206;47.032;15.484;2022-08-24T08:17:03;21.20;1.00
41469;DHT22;27206;47.032;15.484;2022-08-24T08:19:28;21.40;1.00
41469;DHT22;27206;47.032;15.484;2022-08-24T08:21:54;21.70;1.00
41469;DHT22;27206;47.032;15.484;2022-08-24T08:24:40;21.90;1.00
41469;DHT22;27206;47.032;15.484;2022-08-24T08:27:10;22.10;1.00
41469;DHT22;27206;47.032;15.484;2022-08-24T08:29:37;22.00;1.00
41469;DHT22;27206;47.032;15.484;2022-08-24T08:32:10;22.00;1.00
41469;DHT22;27206;47.032;15.484;2022-08-24T08:34:42;22.10;1.00
41469;DHT22;27206;47.032;15.484;2022-08-24T08:37:09;22.20;1.00
41469;DHT22;27206;47.032;15.484;2022-08-24T08:39:35;22.30;1.00
41469;DHT22;27206;47.032;15.484;2022-08-24T08:42:08;22.60;1.00
41469;DHT22;27206;47.032;15.484;2022-08-24T08:45:42;22.80;1.00
41469;DHT22;27206;47.032;15.484;2022-08-24T08:48:21;22.90;1.00
41469;DHT22;27206;47.032;15.484;2022-08-24T08:57:04;24.10;1.00
41469;DHT22;27206;47.032;15.484;2022-08-24T08:59:46;24.70;1.00
41469;DHT22;27206;47.032;15.484;2022-08-24T09:02:31;24.80;1.00
41469;DHT22;27206;47.032;15.484;2022-08-24T09:10:52;25.00;1.00
41469;DHT22;27206;47.032;15.484;2022-08-24T09:35:05;25.70;99.90
41469;DHT22;27206;47.032;15.484;2022-08-24T09:43:15;25.80;99.90
41469;DHT22;27206;47.032;15.484;2022-08-24T09:49:02;26.60;99.90
41469;DHT22;27206;47.032;15.484;2022-08-24T10:05:23;28.00;99.90
41469;DHT22;27206;47.032;15.484;2022-08-24T10:08:21;28.50;99.90
41469;DHT22;27206;47.032;15.484;2022-08-24T10:26:03;28.60;99.90
41469;DHT22;27206;47.032;15.484;2022-08-24T10:31:47;28.80;99.90
41469;DHT22;27206;47.032;15.484;2022-08-24T10:37:25;28.90;99.90
41469;DHT22;27206;47.032;15.484;2022-08-24T10:46:32;29.60;99.90
41469;DHT22;27206;47.032;15.484;2022-08-24T10:52:24;29.40;99.90
41469;DHT22;27206;47.032;15.484;2022-08-24T10:54:54;29.20;99.90
41469;DHT22;27206;47.032;15.484;2022-08-24T11:00:08;29.10;99.90
41469;DHT22;27206;47.032;15.484;2022-08-24T11:02:38;29.70;99.90
41469;DHT22;27206;47.032;15.484;2022-08-24T11:05:20;30.20;99.90
41469;DHT22;27206;47.032;15.484;2022-08-24T11:07:58;30.20;99.90
41469;DHT22;27206;47.032;15.484;2022-08-24T11:10:32;30.60;99.90
41469;DHT22;27206;47.032;15.484;2022-08-24T11:15:57;30.70;99.90
41469;DHT22;27206;47.032;15.484;2022-08-24T11:18:23;31.10;99.90
41469;DHT22;27206;47.032;15.484;2022-08-24T11:20:51;30.70;99.90
41469;DHT22;27206;47.032;15.484;2022-08-24T11:23:19;30.70;99.90
41469;DHT22;27206;47.032;15.484;2022-08-24T11:26:05;30.70;99.90
41469;DHT22;27206;47.032;15.484;2022-08-24T11:31:19;31.30;99.90
41469;DHT22;27206;47.032;15.484;2022-08-24T11:33:50;31.40;99.90
41469;DHT22;27206;47.032;15.484;2022-08-24T11:36:25;31.70;99.90
41469;DHT22;27206;47.032;15.484;2022-08-24T11:44:59;30.80;99.90
41469;DHT22;27206;47.032;15.484;2022-08-24T11:48:01;30.90;99.90
41469;DHT22;27206;47.032;15.484;2022-08-24T11:53:03;31.30;99.90
41469;DHT22;27206;47.032;15.484;2022-08-24T11:55:50;31.20;99.90
41469;DHT22;27206;47.032;15.484;2022-08-24T12:01:18;31.00;99.90
41469;DHT22;27206;47.032;15.484;2022-08-24T12:15:36;30.10;99.90
41469;DHT22;27206;47.032;15.484;2022-08-24T12:20:48;30.20;99.90
41469;DHT22;27206;47.032;15.484;2022-08-24T12:23:37;30.60;99.90
41469;DHT22;27206;47.032;15.484;2022-08-24T12:26:11;31.10;99.90
41469;DHT22;27206;47.032;15.484;2022-08-24T12:28:48;31.30;99.90
41469;DHT22;27206;47.032;15.484;2022-08-24T12:34:03;32.20;99.90
41469;DHT22;27206;47.032;15.484;2022-08-24T12:36:32;32.80;99.90
41469;DHT22;27206;47.032;15.484;2022-08-24T12:39:11;32.20;99.90
41469;DHT22;27206;47.032;15.484;2022-08-24T12:41:52;32.30;99.90
41469;DHT22;27206;47.032;15.484;2022-08-24T12:44:23;33.20;99.90
41469;DHT22;27206;47.032;15.484;2022-08-24T12:46:52;33.10;99.90
41469;DHT22;27206;47.032;15.484;2022-08-24T12:49:25;33.80;99.90
41469;DHT22;27206;47.032;15.484;2022-08-24T12:52:11;34.50;99.90
41469;DHT22;27206;47.032;15.484;2022-08-24T13:00:27;34.20;99.90
41469;DHT22;27206;47.032;15.484;2022-08-24T13:02:59;33.70;99.90
41469;DHT22;27206;47.032;15.484;2022-08-24T13:05:38;34.10;99.90
41469;DHT22;27206;47.032;15.484;2022-08-24T13:08:11;34.50;99.90
41469;DHT22;27206;47.032;15.484;2022-08-24T13:10:42;34.60;99.90
41469;DHT22;27206;47.032;15.484;2022-08-24T13:13:11;34.50;99.90
41469;DHT22;27206;47.032;15.484;2022-08-24T13:25:57;30.60;99.90
41469;DHT22;27206;47.032;15.484;2022-08-24T13:36:44;34.60;99.90
41469;DHT22;27206;47.032;15.484;2022-08-24T13:52:43;33.80;99.90
41469;DHT22;27206;47.032;15.484;2022-08-24T13:55:33;34.20;99.90
41469;DHT22;27206;47.032;15.484;2022-08-24T14:00:56;34.00;99.90
41469;DHT22;27206;47.032;15.484;2022-08-24T14:23:08;30.50;99.90
41469;DHT22;27206;47.032;15.484;2022-08-24T14:25:37;30.70;99.90
41469;DHT22;27206;47.032;15.484;2022-08-24T14:31:23;31.00;99.90
41469;DHT22;27206;47.032;15.484;2022-08-24T14:34:23;31.40;99.90
41469;DHT22;27206;47.032;15.484;2022-08-24T14:36:57;32.00;99.90
41469;DHT22;27206;47.032;15.484;2022-08-24T14:39:32;32.30;99.90
41469;DHT22;27206;47.032;15.484;2022-08-24T14:42:50;32.80;99.90
41469;DHT22;27206;47.032;15.484;2022-08-24T14:50:25;33.30;99.90
41469;DHT22;27206;47.032;15.484;2022-08-24T14:53:22;32.60;99.90
41469;DHT22;27206;47.032;15.484;2022-08-24T14:59:02;32.70;99.90
41469;DHT22;27206;47.032;15.484;2022-08-24T15:01:45;31.80;99.90
41469;DHT22;27206;47.032;15.484;2022-08-24T15:07:28;28.60;99.90
41469;DHT22;27206;47.032;15.484;2022-08-24T15:09:55;27.70;1.00
41469;DHT22;27206;47.032;15.484;2022-08-24T15:12:53;27.00;1.00
41469;DHT22;27206;47.032;15.484;2022-08-24T15:15:37;26.50;1.00
41469;DHT22;27206;47.032;15.484;2022-08-24T15:26:17;25.70;1.00
41469;DHT22;27206;47.032;15.484;2022-08-24T15:28:51;25.70;1.00
41469;DHT22;27206;47.032;15.484;2022-08-24T15:31:21;25.40;1.00
41469;DHT22;27206;47.032;15.484;2022-08-24T15:33:59;25.30;1.00
41469;DHT22;27206;47.032;15.484;2022-08-24T15:36:26;25.30;1.00
41469;DHT22;27206;47.032;15.484;2022-08-24T15:38:53;25.20;1.00
41469;DHT22;27206;47.032;15.484;2022-08-24T15:41:39;25.30;1.00
41469;DHT22;27206;47.032;15.484;2022-08-24T15:44:28;25.30;1.00
41469;DHT22;27206;47.032;15.484;2022-08-24T15:46:58;25.10;1.00
41469;DHT22;27206;47.032;15.484;2022-08-24T15:49:49;25.00;1.00
41469;DHT22;27206;47.032;15.484;2022-08-24T15:52:47;24.80;1.00
41469;DHT22;27206;47.032;15.484;2022-08-24T15:55:28;24.80;1.00
41469;DHT22;27206;47.032;15.484;2022-08-24T15:57:57;24.80;1.00
41469;DHT22;27206;47.032;15.484;2022-08-24T16:00:24;24.70;1.00
41469;DHT22;27206;47.032;15.484;2022-08-24T16:03:41;24.50;1.00
41469;DHT22;27206;47.032;15.484;2022-08-24T16:09:12;24.40;1.00
41469;DHT22;27206;47.032;15.484;2022-08-24T16:14:30;24.40;1.00
41469;DHT22;27206;47.032;15.484;2022-08-24T16:16:57;24.60;1.00
41469;DHT22;27206;47.032;15.484;2022-08-24T16:19:27;24.70;1.00
41469;DHT22;27206;47.032;15.484;2022-08-24T16:21:57;24.70;1.00
41469;DHT22;27206;47.032;15.484;2022-08-24T16:24:30;24.60;1.00
41469;DHT22;27206;47.032;15.484;2022-08-24T16:27:06;24.60;1.00
41469;DHT22;27206;47.032;15.484;2022-08-24T16:32:15;24.80;1.00
41469;DHT22;27206;47.032;15.484;2022-08-24T16:34:46;24.80;1.00
41469;DHT22;27206;47.032;15.484;2022-08-24T16:37:17;24.80;1.00
41469;DHT22;27206;47.032;15.484;2022-08-24T16:39:44;24.80;1.00
41469;DHT22;27206;47.032;15.484;2022-08-24T16:42:25;24.60;1.00
41469;DHT22;27206;47.032;15.484;2022-08-24T16:44:51;24.60;1.00
41469;DHT22;27206;47.032;15.484;2022-08-24T16:47:18;24.60;1.00
41469;DHT22;27206;47.032;15.484;2022-08-24T16:49:45;24.50;1.00
41469;DHT22;27206;47.032;15.484;2022-08-24T16:52:11;24.40;1.00
41469;DHT22;27206;47.032;15.484;2022-08-24T16:54:37;24.30;1.00
41469;DHT22;27206;47.032;15.484;2022-08-24T16:57:15;24.20;1.00
41469;DHT22;27206;47.032;15.484;2022-08-24T16:59:43;24.10;1.00
41469;DHT22;27206;47.032;15.484;2022-08-24T17:02:10;24.10;1.00
41469;DHT22;27206;47.032;15.484;2022-08-24T17:04:36;23.90;1.00
41469;DHT22;27206;47.032;15.484;2022-08-24T17:07:02;24.00;1.00
41469;DHT22;27206;47.032;15.484;2022-08-24T17:09:28;23.90;1.00
41469;DHT22;27206;47.032;15.484;2022-08-24T17:11:54;24.00;1.00
41469;DHT22;27206;47.032;15.484;2022-08-24T17:14:20;24.00;1.00
41469;DHT22;27206;47.032;15.484;2022-08-24T17:16:46;24.10;1.00
41469;DHT22;27206;47.032;15.484;2022-08-24T17:19:15;24.10;1.00
41469;DHT22;27206;47.032;15.484;2022-08-24T17:21:42;24.00;1.00
41469;DHT22;27206;47.032;15.484;2022-08-24T17:24:09;23.90;1.00
41469;DHT22;27206;47.032;15.484;2022-08-24T17:26:36;23.80;1.00
41469;DHT22;27206;47.032;15.484;2022-08-24T17:29:04;23.60;1.00
41469;DHT22;27206;47.032;15.484;2022-08-24T17:31:31;23.70;1.00
41469;DHT22;27206;47.032;15.484;2022-08-24T17:33:58;23.60;1.00
41469;DHT22;27206;47.032;15.484;2022-08-24T17:36:24;23.50;1.00
41469;DHT22;27206;47.032;15.484;2022-08-24T17:38:52;23.40;1.00
41469;DHT22;27206;47.032;15.484;2022-08-24T17:41:19;23.50;1.00
41469;DHT22;27206;47.032;15.484;2022-08-24T17:43:45;23.50;1.00
41469;DHT22;27206;47.032;15.484;2022-08-24T17:46:12;23.30;1.00
41469;DHT22;27206;47.032;15.484;2022-08-24T17:48:41;23.20;1.00
41469;DHT22;27206;47.032;15.484;2022-08-24T17:51:08;23.00;1.00
41469;DHT22;27206;47.032;15.484;2022-08-24T17:53:33;23.00;1.00
41469;DHT22;27206;47.032;15.484;2022-08-24T17:56:01;22.80;1.00
41469;DHT22;27206;47.032;15.484;2022-08-24T17:58:27;22.60;1.00
41469;DHT22;27206;47.032;15.484;2022-08-24T18:00:53;22.60;1.00
41469;DHT22;27206;47.032;15.484;2022-08-24T18:03:19;22.50;1.00
41469;DHT22;27206;47.032;15.484;2022-08-24T18:05:44;22.40;1.00
41469;DHT22;27206;47.032;15.484;2022-08-24T18:08:11;22.30;1.00
41469;DHT22;27206;47.032;15.484;2022-08-24T18:10:37;22.40;1.00
41469;DHT22;27206;47.032;15.484;2022-08-24T18:13:03;22.30;1.00
41469;DHT22;27206;47.032;15.484;2022-08-24T18:15:31;22.30;1.00
41469;DHT22;27206;47.032;15.484;2022-08-24T18:18:00;22.10;1.00
41469;DHT22;27206;47.032;15.484;2022-08-24T18:20:28;22.00;1.00
41469;DHT22;27206;47.032;15.484;2022-08-24T18:22:57;21.90;1.00
41469;DHT22;27206;47.032;15.484;2022-08-24T18:25:23;21.70;1.00
41469;DHT22;27206;47.032;15.484;2022-08-24T18:27:54;21.70;1.00
41469;DHT22;27206;47.032;15.484;2022-08-24T18:30:28;21.70;1.00
41469;DHT22;27206;47.032;15.484;2022-08-24T18:32:54;21.70;1.00
41469;DHT22;27206;47.032;15.484;2022-08-24T18:35:20;21.70;1.00
41469;DHT22;27206;47.032;15.484;2022-08-24T18:37:46;21.60;1.00
41469;DHT22;27206;47.032;15.484;2022-08-24T18:40:13;21.60;1.00
41469;DHT22;27206;47.032;15.484;2022-08-24T18:42:40;21.50;1.00
41469;DHT22;27206;47.032;15.484;2022-08-24T18:45:07;21.50;1.00
41469;DHT22;27206;47.032;15.484;2022-08-24T18:47:34;21.50;1.00
41469;DHT22;27206;47.032;15.484;2022-08-24T18:50:00;21.40;1.00
41469;DHT22;27206;47.032;15.484;2022-08-24T18:52:25;21.30;1.00
41469;DHT22;27206;47.032;15.484;2022-08-24T18:54:52;21.30;1.00
41469;DHT22;27206;47.032;15.484;2022-08-24T18:57:18;21.20;1.00
41469;DHT22;27206;47.032;15.484;2022-08-24T18:59:44;21.20;1.00
41469;DHT22;27206;47.032;15.484;2022-08-24T19:02:12;21.10;1.00
41469;DHT22;27206;47.032;15.484;2022-08-24T19:07:30;21.30;1.00
41469;DHT22;27206;47.032;15.484;2022-08-24T19:09:57;21.30;1.00
41469;DHT22;27206;47.032;15.484;2022-08-24T19:12:22;21.40;1.00
41469;DHT22;27206;47.032;15.484;2022-08-24T19:14:52;21.40;1.00
41469;DHT22;27206;47.032;15.484;2022-08-24T19:17:18;21.60;1.00
41469;DHT22;27206;47.032;15.484;2022-08-24T19:19:44;21.40;1.00
41469;DHT22;27206;47.032;15.484;2022-08-24T19:22:11;21.30;1.00